Cleveland, Ohio
Traffic Map
Current Weather Conditions
Cleveland, Ohio
Overcast
Overcast

Feels Like: -2°
Wind Chill: -2° Ceiling: 3300
Heat Index: Visibility: 10mi
Dew Point: -4° Wind: 6mph
Humidity: 72% Direction: 270° (W)
Pressure: 29.95in Gusts: 0mph
Raw Report DataKBKL 041753Z 27005KT 10SM OVC033 01/M04 A2995 RMK AO2 SLP148 T00061039 10006 20000 55002
Traffic Incident Summary
Active as of:
Severity:
Category:
InformationThere was an issue retrieving the traffic information for this location. Please try a different location or try again shortly.
Advertisements
Track Severe Weather on mobile